createdAt,value
2019-03-02T00:03:18.579Z,8.31
2019-03-02T00:07:26.701Z,8.40
2019-03-02T00:11:34.328Z,8.31
2019-03-02T00:15:42.653Z,8.05
2019-03-02T00:19:50.841Z,7.98
2019-03-02T00:23:58.546Z,8.02
2019-03-02T00:28:07.922Z,8.03
2019-03-02T00:32:16.313Z,7.93
2019-03-02T00:36:24.230Z,7.75
2019-03-02T00:40:33.828Z,7.81
2019-03-02T00:44:41.404Z,7.75
2019-03-02T00:48:49.311Z,7.80
2019-03-02T00:52:59.115Z,7.73
2019-03-02T00:57:07.072Z,7.56
2019-03-02T01:01:15.607Z,7.34
2019-03-02T01:05:24.010Z,7.26
2019-03-02T01:09:31.838Z,7.10
2019-03-02T01:13:40.385Z,7.18
2019-03-02T01:17:48.674Z,7.20
2019-03-02T01:21:56.393Z,7.00
2019-03-02T01:26:05.032Z,7.33
2019-03-02T01:30:15.310Z,6.81
2019-03-02T01:34:23.101Z,6.80
2019-03-02T01:38:31.530Z,7.15
2019-03-02T01:42:40.561Z,6.97
2019-03-02T01:46:48.985Z,6.87
2019-03-02T01:50:56.544Z,6.97
2019-03-02T01:55:04.590Z,6.93
2019-03-02T01:59:12.855Z,7.04
2019-03-02T02:03:20.840Z,6.82
2019-03-02T02:07:28.753Z,6.92
2019-03-02T02:11:36.976Z,6.70
2019-03-02T02:15:46.542Z,6.58
2019-03-02T02:19:54.345Z,6.47
2019-03-02T02:24:02.665Z,6.56
2019-03-02T02:28:12.356Z,6.55
2019-03-02T02:32:24.006Z,6.35
2019-03-02T02:36:29.936Z,6.46
2019-03-02T02:40:38.300Z,6.27
2019-03-02T02:44:46.327Z,6.24
2019-03-02T02:48:54.252Z,6.11
2019-03-02T02:53:07.012Z,5.67
2019-03-02T02:57:11.904Z,5.93
2019-03-02T03:01:21.144Z,5.92
2019-03-02T03:05:29.052Z,6.05
2019-03-02T03:09:49.423Z,5.94
2019-03-02T03:13:57.786Z,6.11
2019-03-02T03:18:07.309Z,6.29
2019-03-02T03:22:15.955Z,6.31
2019-03-02T03:26:23.771Z,6.40
2019-03-02T03:30:36.179Z,6.39
2019-03-02T03:34:42.063Z,6.33
2019-03-02T03:38:49.852Z,6.21
2019-03-02T03:43:02.947Z,6.02
2019-03-02T03:47:08.243Z,5.93
2019-03-02T03:51:16.004Z,5.71
2019-03-02T03:55:27.042Z,5.73
2019-03-02T03:59:34.251Z,5.85
2019-03-02T04:03:42.060Z,5.95
2019-03-02T04:07:51.522Z,6.06
2019-03-02T04:11:59.916Z,6.01
2019-03-02T04:16:07.746Z,5.78
2019-03-02T04:20:19.642Z,5.80
2019-03-02T04:24:28.068Z,5.71
2019-03-02T04:28:35.871Z,5.73
2019-03-02T04:32:44.194Z,5.79
2019-03-02T04:36:52.924Z,5.99
2019-03-02T04:41:04.119Z,5.97
2019-03-02T04:45:10.903Z,5.88
2019-03-02T04:49:19.121Z,5.98
2019-03-02T04:53:27.442Z,6.03
2019-03-02T04:57:36.185Z,6.07
2019-03-02T05:01:46.249Z,6.06
2019-03-02T05:05:54.229Z,5.97
2019-03-02T05:10:02.270Z,6.13
2019-03-02T05:14:10.285Z,6.18
2019-03-02T05:18:18.987Z,6.04
2019-03-02T05:22:28.165Z,5.99
2019-03-02T05:26:36.309Z,6.21
2019-03-02T05:30:45.021Z,6.28
2019-03-02T05:34:53.423Z,6.47
2019-03-02T05:39:01.281Z,6.57
2019-03-02T05:43:10.989Z,6.57
2019-03-02T05:47:18.915Z,6.73
2019-03-02T05:51:27.112Z,7.06
2019-03-02T05:55:34.939Z,7.21
2019-03-02T05:59:42.635Z,7.28
2019-03-02T06:03:50.639Z,7.44
2019-03-02T06:08:00.502Z,7.53
2019-03-02T06:12:11.834Z,7.80
2019-03-02T06:16:18.652Z,7.64
2019-03-02T06:20:27.114Z,7.94
2019-03-02T06:24:37.682Z,8.10
2019-03-02T06:28:44.376Z,8.25
2019-03-02T06:32:52.595Z,8.14
2019-03-02T06:37:00.618Z,8.10
2019-03-02T06:41:09.333Z,8.14
2019-03-02T06:45:17.406Z,8.16
2019-03-02T06:49:25.198Z,8.03
2019-03-02T06:53:34.080Z,8.79
2019-03-02T06:57:46.068Z,8.56
2019-03-02T07:01:53.095Z,8.42
2019-03-02T07:06:01.631Z,8.36
2019-03-02T07:10:17.667Z,8.67
2019-03-02T07:14:28.853Z,8.99
2019-03-02T07:18:44.196Z,8.77
2019-03-02T07:22:52.629Z,8.71
2019-03-02T07:27:01.416Z,8.40
2019-03-02T07:31:09.946Z,7.72
2019-03-02T07:35:19.410Z,7.85
2019-03-02T07:39:32.803Z,7.85
2019-03-02T07:43:42.291Z,7.49
2019-03-02T07:47:49.400Z,7.39
2019-03-02T07:51:57.209Z,7.35
2019-03-02T07:56:05.333Z,7.13
2019-03-02T08:00:16.201Z,7.01
2019-03-02T08:04:24.507Z,6.87
2019-03-02T08:08:32.329Z,6.79
2019-03-02T08:12:40.438Z,6.69
2019-03-02T08:16:48.452Z,6.72
2019-03-02T08:20:57.399Z,6.65
2019-03-02T08:25:07.388Z,6.39
2019-03-02T08:29:17.731Z,6.22
2019-03-02T08:33:24.922Z,6.28
2019-03-02T08:37:32.475Z,6.31
2019-03-02T08:41:40.946Z,5.94
2019-03-02T08:45:48.975Z,5.75
2019-03-02T08:49:57.121Z,5.82
2019-03-02T08:54:05.209Z,5.47
2019-03-02T08:58:12.909Z,5.55
2019-03-02T09:02:21.121Z,5.30
2019-03-02T09:06:30.834Z,5.19
2019-03-02T09:10:38.387Z,5.20
2019-03-02T09:14:48.986Z,5.11
2019-03-02T09:18:55.599Z,5.00
2019-03-02T09:23:03.462Z,5.18
2019-03-02T09:27:11.604Z,5.27
2019-03-02T09:31:26.087Z,5.01
2019-03-02T09:35:29.456Z,5.06
2019-03-02T09:39:38.207Z,5.35
2019-03-02T09:43:46.187Z,5.57
2019-03-02T09:47:54.309Z,5.33
2019-03-02T09:52:02.149Z,5.05
2019-03-02T09:56:09.945Z,5.21
2019-03-02T10:00:23.833Z,5.01
2019-03-02T10:04:29.847Z,4.93
2019-03-02T10:08:37.552Z,4.91
2019-03-02T10:12:47.278Z,5.32
2019-03-02T10:16:55.764Z,5.27
2019-03-02T10:21:03.561Z,5.31
2019-03-02T10:25:11.908Z,4.96
2019-03-02T10:29:20.944Z,5.02
2019-03-02T10:33:32.088Z,5.32
2019-03-02T10:37:39.608Z,5.15
2019-03-02T10:41:48.299Z,5.11
2019-03-02T10:45:55.959Z,5.36
2019-03-02T10:50:05.113Z,5.12
2019-03-02T10:54:12.936Z,5.16
2019-03-02T10:58:20.625Z,5.36
2019-03-02T11:02:29.882Z,5.64
2019-03-02T11:07:09.105Z,5.49
2019-03-02T11:11:37.793Z,5.55
2019-03-02T11:16:07.923Z,5.58
2019-03-02T11:20:49.962Z,5.44
2019-03-02T11:25:28.901Z,5.65
2019-03-02T11:29:53.513Z,5.75
2019-03-02T11:34:19.400Z,5.79
2019-03-02T11:38:49.261Z,5.34
2019-03-02T11:43:18.744Z,5.55
2019-03-02T11:47:55.324Z,5.59
2019-03-02T11:52:38.568Z,5.57
2019-03-02T11:57:22.097Z,5.58
2019-03-02T12:01:36.341Z,5.89
2019-03-02T12:06:05.907Z,6.16
2019-03-02T12:10:31.026Z,6.24
2019-03-02T12:15:00.571Z,6.73
2019-03-02T12:19:30.604Z,7.11
2019-03-02T12:23:57.798Z,7.27
2019-03-02T12:28:23.289Z,7.56
2019-03-02T12:32:44.340Z,7.58
2019-03-02T12:36:57.348Z,7.22
2019-03-02T12:41:15.732Z,7.25
2019-03-02T12:45:39.409Z,7.03
2019-03-02T12:50:09.843Z,6.87
2019-03-02T12:54:32.006Z,7.03
2019-03-02T12:58:48.509Z,7.18
2019-03-02T13:03:18.327Z,6.87
2019-03-02T13:07:38.011Z,7.41
2019-03-02T13:12:05.727Z,7.35
2019-03-02T13:16:34.089Z,7.21
2019-03-02T13:21:01.172Z,7.16
2019-03-02T13:25:30.237Z,7.78
2019-03-02T13:29:54.878Z,7.39
2019-03-02T13:34:23.260Z,7.13
2019-03-02T13:38:52.904Z,7.01
2019-03-02T13:43:24.666Z,7.62
2019-03-02T13:47:48.687Z,7.04
2019-03-02T13:52:11.800Z,7.21
2019-03-02T13:56:53.738Z,7.57
2019-03-02T14:01:21.177Z,7.90
2019-03-02T14:05:46.053Z,7.14
2019-03-02T14:10:11.547Z,7.42
2019-03-02T14:14:47.782Z,7.30
2019-03-02T14:19:29.604Z,7.02
2019-03-02T14:23:50.009Z,7.45
2019-03-02T14:28:15.433Z,7.25
2019-03-02T14:32:51.970Z,7.22
2019-03-02T14:37:11.100Z,7.30
2019-03-02T14:41:43.020Z,7.33
2019-03-02T14:46:23.389Z,7.06
2019-03-02T14:50:43.982Z,6.38
2019-03-02T14:55:13.069Z,6.48
2019-03-02T14:59:43.051Z,6.43
2019-03-02T15:04:28.019Z,6.58
2019-03-02T15:08:59.039Z,6.54
2019-03-02T15:13:29.431Z,6.66
2019-03-02T15:17:56.137Z,7.19
2019-03-02T15:22:24.153Z,6.67
2019-03-02T15:26:59.632Z,6.22
2019-03-02T15:31:19.295Z,5.84
2019-03-02T15:35:55.247Z,5.76
2019-03-02T15:40:11.535Z,5.55
2019-03-02T15:44:36.609Z,5.61
2019-03-02T15:48:53.455Z,5.41
2019-03-02T15:53:20.302Z,5.55
2019-03-02T15:57:47.993Z,5.58
2019-03-02T16:02:12.181Z,5.35
2019-03-02T16:06:38.872Z,4.76
2019-03-02T16:10:59.198Z,4.81
2019-03-02T16:15:24.661Z,4.89
2019-03-02T16:19:51.423Z,4.66
2019-03-02T16:24:36.995Z,4.85
2019-03-02T16:29:14.929Z,4.90
2019-03-02T16:33:40.662Z,4.91
2019-03-02T16:38:08.173Z,4.99
2019-03-02T16:42:35.251Z,5.02
2019-03-02T16:47:04.875Z,4.64
2019-03-02T16:51:37.669Z,4.64
2019-03-02T16:56:05.270Z,4.34
2019-03-02T17:00:33.883Z,4.00
2019-03-02T17:05:00.591Z,3.70
2019-03-02T17:09:47.136Z,3.78
2019-03-02T17:14:30.385Z,3.56
2019-03-02T17:18:50.920Z,2.99
2019-03-02T17:23:10.306Z,3.21
2019-03-02T17:27:24.545Z,3.32
2019-03-02T17:31:50.470Z,3.27
2019-03-02T17:36:10.882Z,2.89
2019-03-02T17:40:53.025Z,3.32
2019-03-02T17:45:25.875Z,3.06
2019-03-02T17:50:04.866Z,3.04
2019-03-02T17:54:31.902Z,3.07
2019-03-02T17:59:08.078Z,2.81
2019-03-02T18:03:50.256Z,2.62
2019-03-02T18:08:02.095Z,2.83
2019-03-02T18:12:35.381Z,2.01
2019-03-02T18:17:02.189Z,2.51
2019-03-02T18:21:09.941Z,2.73
2019-03-02T18:25:18.024Z,2.35
2019-03-02T18:29:29.431Z,2.60
2019-03-02T18:33:48.760Z,2.72
2019-03-02T18:37:57.698Z,2.44
2019-03-02T18:42:05.605Z,2.54
2019-03-02T18:46:16.461Z,2.49
2019-03-02T18:50:43.241Z,2.66
2019-03-02T18:54:51.056Z,2.78
2019-03-02T18:59:04.256Z,2.39
2019-03-02T19:03:14.649Z,2.82
2019-03-02T19:07:22.767Z,2.90
2019-03-02T19:11:31.600Z,2.78
2019-03-02T19:15:39.621Z,2.53
2019-03-02T19:19:47.431Z,2.39
2019-03-02T19:23:55.157Z,2.48
2019-03-02T19:28:03.456Z,2.29
2019-03-02T19:32:11.768Z,2.48
2019-03-02T19:36:20.499Z,2.54
2019-03-02T19:40:29.565Z,2.59
2019-03-02T19:44:37.348Z,2.34
2019-03-02T19:48:45.056Z,2.27
2019-03-02T19:52:53.068Z,2.06
2019-03-02T19:57:00.764Z,2.38
2019-03-02T20:01:08.804Z,1.87
2019-03-02T20:05:18.125Z,2.34
2019-03-02T20:09:25.770Z,2.36
2019-03-02T20:13:34.776Z,2.29
2019-03-02T20:17:43.936Z,2.26
2019-03-02T20:21:51.643Z,2.26
2019-03-02T20:25:59.947Z,2.30
2019-03-02T20:30:10.243Z,1.89
2019-03-02T20:34:17.942Z,1.59
2019-03-02T20:38:26.142Z,1.70
2019-03-02T20:42:34.471Z,1.83
2019-03-02T20:46:42.052Z,1.67
2019-03-02T20:50:50.402Z,1.86
2019-03-02T20:54:58.103Z,1.72
2019-03-02T20:59:06.599Z,1.77
2019-03-02T21:03:15.148Z,2.07
2019-03-02T21:07:23.181Z,1.89
2019-03-02T21:11:31.171Z,1.96
2019-03-02T21:15:39.564Z,1.62
2019-03-02T21:19:47.319Z,1.90
2019-03-02T21:23:55.213Z,1.90
2019-03-02T21:28:03.961Z,1.75
2019-03-02T21:32:11.584Z,1.66
2019-03-02T21:36:19.689Z,1.55
2019-03-02T21:40:27.722Z,1.59
2019-03-02T21:44:35.404Z,1.55
2019-03-02T21:48:43.545Z,1.40
2019-03-02T21:52:51.137Z,1.40
2019-03-02T21:56:59.113Z,1.63
2019-03-02T22:01:07.373Z,1.43
2019-03-02T22:05:15.182Z,1.59
2019-03-02T22:09:23.072Z,1.45
2019-03-02T22:13:31.286Z,1.48
2019-03-02T22:17:40.304Z,1.50
2019-03-02T22:21:48.473Z,1.01
2019-03-02T22:25:56.253Z,1.36
2019-03-02T22:30:04.199Z,1.55
2019-03-02T22:34:11.989Z,1.59
2019-03-02T22:38:19.710Z,1.27
2019-03-02T22:42:27.395Z,1.32
2019-03-02T22:46:35.213Z,1.50
2019-03-02T22:50:43.055Z,1.46
2019-03-02T22:54:50.708Z,1.27
2019-03-02T22:58:58.000Z,1.19
2019-03-02T23:03:03.569Z,0.97
2019-03-02T23:07:11.905Z,1.04
2019-03-02T23:11:19.615Z,1.29
2019-03-02T23:15:30.745Z,1.20
2019-03-02T23:19:38.556Z,1.23
2019-03-02T23:23:46.208Z,1.33
2019-03-02T23:27:54.342Z,1.17
2019-03-02T23:32:02.244Z,1.23
2019-03-02T23:36:10.051Z,1.34
2019-03-02T23:40:18.215Z,1.25
2019-03-02T23:44:25.995Z,1.08
2019-03-02T23:48:33.585Z,1.42
2019-03-02T23:52:42.408Z,1.40
2019-03-02T23:56:50.116Z,0.69
